createdAt,value
2024-04-12T00:01:31.717Z,17.63
2024-04-12T00:11:40.822Z,16.17
2024-04-12T00:21:48.052Z,20.80
2024-04-12T00:31:56.454Z,21.05
2024-04-12T00:42:01.769Z,19.17
2024-04-12T00:52:14.143Z,20.83
2024-04-12T01:02:22.548Z,21.05
2024-04-12T01:12:29.943Z,24.83
2024-04-12T01:22:36.810Z,22.90
2024-04-12T01:32:51.549Z,22.92
2024-04-12T01:42:57.242Z,27.52
2024-04-12T01:53:10.828Z,36.13
2024-04-12T02:03:16.028Z,27.63
2024-04-12T02:13:24.878Z,32.97
2024-04-12T02:23:29.636Z,33.13
2024-04-12T02:33:36.988Z,35.60
2024-04-12T02:43:42.761Z,39.75
2024-04-12T02:53:52.024Z,33.22
2024-04-12T03:04:00.406Z,37.17
2024-04-12T03:14:11.145Z,35.28
2024-04-12T03:24:16.498Z,34.03
2024-04-12T03:34:25.658Z,28.15
2024-04-12T03:44:32.834Z,30.13
2024-04-12T03:54:40.842Z,29.88
2024-04-12T04:04:49.292Z,28.42
2024-04-12T04:14:56.841Z,31.17
2024-04-12T04:25:01.497Z,24.60
2024-04-12T04:35:12.807Z,29.77
2024-04-12T04:45:19.796Z,27.75
2024-04-12T04:55:27.843Z,25.10
2024-04-12T05:05:34.431Z,23.83
2024-04-12T05:15:54.117Z,26.92
2024-04-12T05:36:11.428Z,18.08
2024-04-12T05:46:16.287Z,14.95
2024-04-12T05:56:27.642Z,13.32
2024-04-12T06:06:32.949Z,12.93
2024-04-12T06:16:40.319Z,14.68
2024-04-12T06:26:48.502Z,17.17
2024-04-12T06:37:07.024Z,19.30
2024-04-12T06:47:14.573Z,14.83
2024-04-12T06:57:23.832Z,15.63
2024-04-12T07:07:30.228Z,9.52
2024-04-12T07:17:40.636Z,8.95
2024-04-12T07:27:48.999Z,7.75
2024-04-12T07:38:03.464Z,10.48
2024-04-12T07:48:28.834Z,11.45
2024-04-12T07:58:42.173Z,7.57
2024-04-12T08:08:47.612Z,12.27
2024-04-12T08:18:58.473Z,13.85
2024-04-12T08:29:05.365Z,11.98
2024-04-12T08:39:26.822Z,11.75
2024-04-12T08:49:34.280Z,9.20
2024-04-12T08:59:47.682Z,10.55
2024-04-12T09:09:57.249Z,8.07
2024-04-12T09:20:05.380Z,9.20
2024-04-12T09:30:23.631Z,6.90
2024-04-12T09:40:35.446Z,10.17
2024-04-12T09:50:56.412Z,8.85
2024-04-12T10:01:24.596Z,8.05
2024-04-12T10:11:45.476Z,7.73
2024-04-12T10:22:09.118Z,6.93
2024-04-12T10:32:49.705Z,8.90
2024-04-12T10:42:58.421Z,8.75
2024-04-12T10:53:08.505Z,8.63
2024-04-12T11:03:22.213Z,5.97
2024-04-12T11:13:37.162Z,4.80
2024-04-12T11:24:00.832Z,4.50
2024-04-12T11:34:11.868Z,4.95
2024-04-12T11:44:21.370Z,4.85
2024-04-12T11:54:30.180Z,5.57
2024-04-12T12:04:37.752Z,7.43
2024-04-12T12:14:43.617Z,5.95
2024-04-12T12:24:51.096Z,4.53
2024-04-12T12:34:56.234Z,5.30
2024-04-12T12:45:04.404Z,7.00
2024-04-12T12:55:11.504Z,4.97
2024-04-12T13:05:19.139Z,6.00
2024-04-12T13:15:24.167Z,4.95
2024-04-12T13:25:31.484Z,6.43
2024-04-12T13:35:36.090Z,4.22
2024-04-12T13:46:00.323Z,4.05
2024-04-12T13:56:21.337Z,3.60
2024-04-12T14:06:29.693Z,3.45
2024-04-12T14:16:43.200Z,1.27
2024-04-12T14:26:50.824Z,2.30
2024-04-12T14:36:58.105Z,2.63
2024-04-12T14:47:05.452Z,2.80
2024-04-12T14:57:10.794Z,4.38
2024-04-12T15:07:33.946Z,2.65
2024-04-12T15:17:54.631Z,8.18
2024-04-12T15:28:18.037Z,3.47
2024-04-12T15:38:38.364Z,3.10
2024-04-12T15:48:45.667Z,4.15
2024-04-12T15:59:05.972Z,6.50
2024-04-12T16:09:29.391Z,6.55
2024-04-12T16:19:34.281Z,5.50
2024-04-12T16:29:41.669Z,2.75
2024-04-12T16:39:49.620Z,6.88
2024-04-12T16:49:56.858Z,3.70
2024-04-12T17:00:01.528Z,5.97
2024-04-12T17:10:10.713Z,8.27
2024-04-12T17:20:15.284Z,7.45
2024-04-12T17:30:22.899Z,10.02
2024-04-12T17:40:27.994Z,5.70
2024-04-12T17:50:35.353Z,10.85
2024-04-12T18:00:39.960Z,7.97
2024-04-12T18:10:47.226Z,7.97
2024-04-12T18:20:52.022Z,5.18
2024-04-12T18:31:00.722Z,10.38
2024-04-12T18:41:22.124Z,10.23
2024-04-12T18:51:29.414Z,8.20
2024-04-12T19:01:34.065Z,17.08
2024-04-12T19:11:41.276Z,6.88
2024-04-12T19:21:45.983Z,7.25
2024-04-12T19:31:53.265Z,8.40
2024-04-12T19:41:59.344Z,12.93
2024-04-12T19:52:07.596Z,7.35
2024-04-12T20:02:12.555Z,9.07
2024-04-12T20:12:22.392Z,11.25
2024-04-12T20:22:27.582Z,5.47
2024-04-12T20:32:37.999Z,10.05
2024-04-12T20:42:42.730Z,10.70
2024-04-12T20:52:50.172Z,13.07
2024-04-12T21:02:54.804Z,9.40
2024-04-12T21:13:02.067Z,7.88
2024-04-12T21:23:06.923Z,6.25
2024-04-12T21:33:15.717Z,7.75
2024-04-12T21:43:20.484Z,11.43
2024-04-12T21:53:27.819Z,9.63
2024-04-12T22:03:32.687Z,10.20
2024-04-12T22:13:40.786Z,9.80
2024-04-12T22:23:49.382Z,6.65
2024-04-12T22:33:57.704Z,7.50
2024-04-12T22:44:02.391Z,9.10
2024-04-12T22:54:09.718Z,8.15
2024-04-12T23:04:14.456Z,12.20
2024-04-12T23:14:21.688Z,7.65
2024-04-12T23:24:26.347Z,7.97
2024-04-12T23:34:34.010Z,3.78
2024-04-12T23:44:38.991Z,5.80
2024-04-12T23:54:47.196Z,6.90
